sensor_id;sensor_type;location;lat;lon;timestamp;pressure;altitude;pressure_sealevel;temperature;humidity
4858;BME280;58975;51.978;8.472;2022-08-04T00:04:17;100130.81;;;22.77;100.00
4858;BME280;58975;51.978;8.472;2022-08-04T00:14:23;100124.72;;;22.61;100.00
4858;BME280;58975;51.978;8.472;2022-08-04T00:19:32;100128.66;;;22.59;100.00
4858;BME280;58975;51.978;8.472;2022-08-04T00:24:31;100130.34;;;22.53;100.00
4858;BME280;58975;51.978;8.472;2022-08-04T00:29:29;100123.44;;;22.51;100.00
4858;BME280;58975;51.978;8.472;2022-08-04T00:34:28;100128.88;;;22.51;100.00
4858;BME280;58975;51.978;8.472;2022-08-04T00:39:28;100115.31;;;22.44;100.00
4858;BME280;58975;51.978;8.472;2022-08-04T01:00:13;100113.41;;;22.25;100.00
4858;BME280;58975;51.978;8.472;2022-08-04T01:05:20;100110.44;;;22.13;100.00
4858;BME280;58975;51.978;8.472;2022-08-04T01:10:57;100111.06;;;22.15;100.00
4858;BME280;58975;51.978;8.472;2022-08-04T01:16:05;100106.25;;;22.04;100.00
4858;BME280;58975;51.978;8.472;2022-08-04T01:37:32;100097.88;;;21.93;100.00
4858;BME280;58975;51.978;8.472;2022-08-04T01:42:34;100086.97;;;21.86;100.00
4858;BME280;58975;51.978;8.472;2022-08-04T01:47:34;100086.75;;;21.81;100.00
4858;BME280;58975;51.978;8.472;2022-08-04T01:52:34;100088.59;;;21.74;100.00
4858;BME280;58975;51.978;8.472;2022-08-04T01:57:32;100091.69;;;21.64;100.00
4858;BME280;58975;51.978;8.472;2022-08-04T02:02:34;100083.09;;;21.48;100.00
4858;BME280;58975;51.978;8.472;2022-08-04T02:13:08;100083.47;;;21.45;100.00
4858;BME280;58975;51.978;8.472;2022-08-04T02:18:18;100069.22;;;21.30;100.00
4858;BME280;58975;51.978;8.472;2022-08-04T02:23:39;100060.13;;;21.09;100.00
4858;BME280;58975;51.978;8.472;2022-08-04T02:29:34;100054.91;;;21.01;100.00
4858;BME280;58975;51.978;8.472;2022-08-04T02:39:44;100040.53;;;20.73;100.00
4858;BME280;58975;51.978;8.472;2022-08-04T02:44:49;100038.53;;;20.54;100.00
4858;BME280;58975;51.978;8.472;2022-08-04T02:49:47;100029.41;;;20.34;100.00
4858;BME280;58975;51.978;8.472;2022-08-04T02:54:52;100025.00;;;20.11;100.00
4858;BME280;58975;51.978;8.472;2022-08-04T03:00:08;100018.66;;;19.98;100.00
4858;BME280;58975;51.978;8.472;2022-08-04T03:05:13;100006.41;;;19.80;100.00
4858;BME280;58975;51.978;8.472;2022-08-04T03:21:04;99998.31;;;19.59;100.00
4858;BME280;58975;51.978;8.472;2022-08-04T03:26:41;99995.03;;;19.64;100.00
4858;BME280;58975;51.978;8.472;2022-08-04T03:32:09;99993.06;;;19.58;100.00
4858;BME280;58975;51.978;8.472;2022-08-04T03:37:28;99982.47;;;19.56;100.00
4858;BME280;58975;51.978;8.472;2022-08-04T03:42:44;99988.34;;;19.60;100.00
4858;BME280;58975;51.978;8.472;2022-08-04T03:48:10;99987.03;;;19.56;100.00
4858;BME280;58975;51.978;8.472;2022-08-04T03:53:25;99973.66;;;19.48;100.00
4858;BME280;58975;51.978;8.472;2022-08-04T03:58:59;99974.56;;;19.55;100.00
4858;BME280;58975;51.978;8.472;2022-08-04T04:04:32;99963.81;;;19.61;100.00
4858;BME280;58975;51.978;8.472;2022-08-04T04:31:16;99970.13;;;20.11;100.00
4858;BME280;58975;51.978;8.472;2022-08-04T04:36:24;99971.44;;;20.21;100.00
4858;BME280;58975;51.978;8.472;2022-08-04T04:41:34;99962.38;;;20.29;100.00
4858;BME280;58975;51.978;8.472;2022-08-04T04:46:52;99970.78;;;20.41;100.00
4858;BME280;58975;51.978;8.472;2022-08-04T04:52:02;99976.16;;;20.62;100.00
4858;BME280;58975;51.978;8.472;2022-08-04T04:57:14;99962.13;;;20.86;100.00
4858;BME280;58975;51.978;8.472;2022-08-04T05:13:53;99968.34;;;21.14;100.00
4858;BME280;58975;51.978;8.472;2022-08-04T05:18:50;99962.97;;;21.28;100.00
4858;BME280;58975;51.978;8.472;2022-08-04T05:23:53;99968.84;;;21.38;100.00
4858;BME280;58975;51.978;8.472;2022-08-04T05:28:53;99966.78;;;21.46;100.00
4858;BME280;58975;51.978;8.472;2022-08-04T05:33:57;99966.81;;;21.59;100.00
4858;BME280;58975;51.978;8.472;2022-08-04T05:38:56;99958.94;;;21.71;100.00
4858;BME280;58975;51.978;8.472;2022-08-04T05:43:56;99964.13;;;21.73;100.00
4858;BME280;58975;51.978;8.472;2022-08-04T05:48:54;99951.19;;;21.68;100.00
4858;BME280;58975;51.978;8.472;2022-08-04T05:53:51;99961.84;;;21.76;100.00
4858;BME280;58975;51.978;8.472;2022-08-04T05:58:51;99966.09;;;21.98;100.00
4858;BME280;58975;51.978;8.472;2022-08-04T06:03:48;99968.53;;;22.59;100.00
4858;BME280;58975;51.978;8.472;2022-08-04T06:08:45;99979.75;;;23.02;100.00
4858;BME280;58975;51.978;8.472;2022-08-04T06:13:43;99978.38;;;23.44;100.00
4858;BME280;58975;51.978;8.472;2022-08-04T06:18:48;99981.00;;;23.88;100.00
4858;BME280;58975;51.978;8.472;2022-08-04T06:24:08;99977.00;;;24.47;100.00
4858;BME280;58975;51.978;8.472;2022-08-04T06:29:07;99978.94;;;24.89;100.00
4858;BME280;58975;51.978;8.472;2022-08-04T06:34:13;99982.47;;;24.90;100.00
4858;BME280;58975;51.978;8.472;2022-08-04T06:39:12;99981.28;;;24.79;100.00
4858;BME280;58975;51.978;8.472;2022-08-04T06:44:10;99974.81;;;24.80;100.00
4858;BME280;58975;51.978;8.472;2022-08-04T06:49:08;99987.69;;;25.10;100.00
4858;BME280;58975;51.978;8.472;2022-08-04T06:54:05;99981.81;;;25.61;100.00
4858;BME280;58975;51.978;8.472;2022-08-04T06:59:03;99980.47;;;26.23;100.00
4858;BME280;58975;51.978;8.472;2022-08-04T07:03:59;99978.00;;;26.79;100.00
4858;BME280;58975;51.978;8.472;2022-08-04T07:08:56;99991.72;;;27.31;100.00
4858;BME280;58975;51.978;8.472;2022-08-04T07:13:53;99990.66;;;27.72;100.00
4858;BME280;58975;51.978;8.472;2022-08-04T07:18:50;99980.59;;;28.06;100.00
4858;BME280;58975;51.978;8.472;2022-08-04T07:23:47;99990.94;;;28.49;94.75
4858;BME280;58975;51.978;8.472;2022-08-04T07:28:45;99981.19;;;28.91;98.51
4858;BME280;58975;51.978;8.472;2022-08-04T07:33:42;99985.91;;;28.96;83.77
4858;BME280;58975;51.978;8.472;2022-08-04T07:38:40;99993.13;;;29.24;83.37
4858;BME280;58975;51.978;8.472;2022-08-04T07:43:46;99990.56;;;29.60;92.66
4858;BME280;58975;51.978;8.472;2022-08-04T07:48:43;99994.13;;;29.83;85.46
4858;BME280;58975;51.978;8.472;2022-08-04T07:53:41;99993.78;;;30.01;73.46
4858;BME280;58975;51.978;8.472;2022-08-04T07:58:50;99990.44;;;30.26;68.60
4858;BME280;58975;51.978;8.472;2022-08-04T08:03:47;99990.94;;;30.49;73.35
4858;BME280;58975;51.978;8.472;2022-08-04T08:08:45;99985.53;;;30.65;66.70
4858;BME280;58975;51.978;8.472;2022-08-04T08:13:41;99977.63;;;30.78;73.37
4858;BME280;58975;51.978;8.472;2022-08-04T08:18:39;99978.56;;;30.89;62.95
4858;BME280;58975;51.978;8.472;2022-08-04T08:23:36;99984.16;;;31.04;65.39
4858;BME280;58975;51.978;8.472;2022-08-04T08:28:33;99987.44;;;31.01;62.10
4858;BME280;58975;51.978;8.472;2022-08-04T08:33:30;99973.78;;;30.42;65.00
4858;BME280;58975;51.978;8.472;2022-08-04T08:39:20;99980.19;;;30.90;65.61
4858;BME280;58975;51.978;8.472;2022-08-04T08:43:55;99977.53;;;31.00;66.10
4858;BME280;58975;51.978;8.472;2022-08-04T08:55:15;99974.94;;;31.40;68.38
4858;BME280;58975;51.978;8.472;2022-08-04T09:00:19;99975.50;;;31.32;60.46
4858;BME280;58975;51.978;8.472;2022-08-04T09:10:53;99979.72;;;31.65;61.12
4858;BME280;58975;51.978;8.472;2022-08-04T09:16:07;99976.25;;;32.15;65.76
4858;BME280;58975;51.978;8.472;2022-08-04T09:21:22;99976.25;;;32.61;63.09
4858;BME280;58975;51.978;8.472;2022-08-04T09:26:33;99975.66;;;32.79;58.30
4858;BME280;58975;51.978;8.472;2022-08-04T09:31:51;99981.78;;;32.61;56.28
4858;BME280;58975;51.978;8.472;2022-08-04T09:37:32;99984.22;;;32.27;56.03
4858;BME280;58975;51.978;8.472;2022-08-04T09:48:04;99969.66;;;31.24;56.81
4858;BME280;58975;51.978;8.472;2022-08-04T10:04:12;99970.72;;;32.15;57.51
4858;BME280;58975;51.978;8.472;2022-08-04T10:14:51;99968.53;;;32.17;58.07
4858;BME280;58975;51.978;8.472;2022-08-04T10:31:19;99949.06;;;34.16;48.62
4858;BME280;58975;51.978;8.472;2022-08-04T10:36:21;99941.13;;;33.61;45.41
4858;BME280;58975;51.978;8.472;2022-08-04T10:46:45;99941.50;;;32.55;44.13
4858;BME280;58975;51.978;8.472;2022-08-04T10:52:07;99935.31;;;33.03;43.31
4858;BME280;58975;51.978;8.472;2022-08-04T10:57:10;99931.97;;;33.21;44.63
4858;BME280;58975;51.978;8.472;2022-08-04T11:02:25;99937.78;;;33.10;41.95
4858;BME280;58975;51.978;8.472;2022-08-04T11:07:29;99933.09;;;33.15;42.09
4858;BME280;58975;51.978;8.472;2022-08-04T11:12:27;99927.06;;;33.57;44.69
4858;BME280;58975;51.978;8.472;2022-08-04T11:17:30;99922.41;;;33.53;41.16
4858;BME280;58975;51.978;8.472;2022-08-04T11:22:30;99926.84;;;33.49;41.88
4858;BME280;58975;51.978;8.472;2022-08-04T11:33:05;99918.91;;;33.86;40.90
4858;BME280;58975;51.978;8.472;2022-08-04T11:38:10;99924.63;;;33.56;39.71
4858;BME280;58975;51.978;8.472;2022-08-04T11:43:22;99920.75;;;33.96;39.63
4858;BME280;58975;51.978;8.472;2022-08-04T11:48:46;99929.59;;;33.49;40.13
4858;BME280;58975;51.978;8.472;2022-08-04T11:53:44;99924.06;;;33.54;39.74
4858;BME280;58975;51.978;8.472;2022-08-04T11:58:42;99935.47;;;33.37;39.84
4858;BME280;58975;51.978;8.472;2022-08-04T12:09:21;99925.75;;;33.50;39.64
4858;BME280;58975;51.978;8.472;2022-08-04T12:15:02;99926.34;;;34.25;39.33
4858;BME280;58975;51.978;8.472;2022-08-04T12:19:51;99924.66;;;33.90;35.70
4858;BME280;58975;51.978;8.472;2022-08-04T12:25:19;99929.00;;;33.57;35.36
4858;BME280;58975;51.978;8.472;2022-08-04T12:30:17;99935.00;;;33.74;36.16
4858;BME280;58975;51.978;8.472;2022-08-04T12:35:49;99929.72;;;34.11;34.53
4858;BME280;58975;51.978;8.472;2022-08-04T12:41:06;99933.09;;;33.69;34.80
4858;BME280;58975;51.978;8.472;2022-08-04T12:46:07;99935.44;;;33.47;35.35
4858;BME280;58975;51.978;8.472;2022-08-04T12:51:08;99941.13;;;33.66;35.48
4858;BME280;58975;51.978;8.472;2022-08-04T12:56:27;99936.72;;;34.38;35.86
4858;BME280;58975;51.978;8.472;2022-08-04T13:01:25;99939.03;;;34.26;35.49
4858;BME280;58975;51.978;8.472;2022-08-04T13:06:43;99917.81;;;33.82;30.94
4858;BME280;58975;51.978;8.472;2022-08-04T13:11:42;99931.75;;;33.67;33.44
4858;BME280;58975;51.978;8.472;2022-08-04T13:16:39;99934.69;;;33.32;33.96
4858;BME280;58975;51.978;8.472;2022-08-04T13:21:43;99935.31;;;33.03;36.00
4858;BME280;58975;51.978;8.472;2022-08-04T13:27:03;99936.09;;;33.73;38.19
4858;BME280;58975;51.978;8.472;2022-08-04T13:32:03;99925.53;;;33.85;36.51
4858;BME280;58975;51.978;8.472;2022-08-04T13:37:03;99942.00;;;32.87;42.46
4858;BME280;58975;51.978;8.472;2022-08-04T13:42:04;99953.34;;;32.55;45.37
4858;BME280;58975;51.978;8.472;2022-08-04T13:47:13;99951.19;;;32.22;46.39
4858;BME280;58975;51.978;8.472;2022-08-04T13:52:10;99944.56;;;32.28;47.10
4858;BME280;58975;51.978;8.472;2022-08-04T13:57:17;99924.41;;;32.58;44.43
4858;BME280;58975;51.978;8.472;2022-08-04T14:02:39;99929.66;;;32.04;43.15
4858;BME280;58975;51.978;8.472;2022-08-04T14:07:45;99940.09;;;31.76;43.81
4858;BME280;58975;51.978;8.472;2022-08-04T14:12:46;99930.47;;;31.74;44.13
4858;BME280;58975;51.978;8.472;2022-08-04T14:17:43;99929.91;;;31.67;43.94
4858;BME280;58975;51.978;8.472;2022-08-04T14:22:39;99924.41;;;31.67;45.24
4858;BME280;58975;51.978;8.472;2022-08-04T14:27:45;99937.25;;;31.41;47.61
4858;BME280;58975;51.978;8.472;2022-08-04T14:33:05;99925.19;;;30.90;51.25
4858;BME280;58975;51.978;8.472;2022-08-04T14:38:22;99934.72;;;30.35;54.82
4858;BME280;58975;51.978;8.472;2022-08-04T14:43:18;99943.25;;;30.39;57.73
4858;BME280;58975;51.978;8.472;2022-08-04T14:48:15;99940.25;;;30.03;60.56
4858;BME280;58975;51.978;8.472;2022-08-04T14:53:16;99941.84;;;29.99;71.25
4858;BME280;58975;51.978;8.472;2022-08-04T14:58:29;99953.66;;;29.46;75.07
4858;BME280;58975;51.978;8.472;2022-08-04T15:03:33;99953.34;;;29.43;79.05
4858;BME280;58975;51.978;8.472;2022-08-04T15:08:46;99956.56;;;29.18;86.13
4858;BME280;58975;51.978;8.472;2022-08-04T15:13:43;99948.91;;;28.77;96.35
4858;BME280;58975;51.978;8.472;2022-08-04T15:18:40;99958.44;;;28.74;100.00
4858;BME280;58975;51.978;8.472;2022-08-04T15:23:37;99960.94;;;28.76;100.00
4858;BME280;58975;51.978;8.472;2022-08-04T15:28:37;99959.38;;;28.80;100.00
4858;BME280;58975;51.978;8.472;2022-08-04T15:33:38;99962.19;;;28.85;100.00
4858;BME280;58975;51.978;8.472;2022-08-04T15:38:39;99960.13;;;28.75;100.00
4858;BME280;58975;51.978;8.472;2022-08-04T15:49:20;99962.63;;;28.98;100.00
4858;BME280;58975;51.978;8.472;2022-08-04T15:59:55;99961.53;;;28.78;100.00
4858;BME280;58975;51.978;8.472;2022-08-04T16:15:49;99959.50;;;28.90;100.00
4858;BME280;58975;51.978;8.472;2022-08-04T16:20:48;99956.38;;;28.81;100.00
4858;BME280;58975;51.978;8.472;2022-08-04T16:25:47;99945.41;;;28.64;100.00
4858;BME280;58975;51.978;8.472;2022-08-04T16:30:43;99956.56;;;28.41;100.00
4858;BME280;58975;51.978;8.472;2022-08-04T16:35:40;99954.59;;;28.20;100.00
4858;BME280;58975;51.978;8.472;2022-08-04T16:40:38;99951.22;;;28.01;100.00
4858;BME280;58975;51.978;8.472;2022-08-04T16:45:53;99953.94;;;27.85;100.00
4858;BME280;58975;51.978;8.472;2022-08-04T16:50:53;99974.59;;;27.76;100.00
4858;BME280;58975;51.978;8.472;2022-08-04T16:55:53;99980.53;;;27.72;100.00
4858;BME280;58975;51.978;8.472;2022-08-04T17:00:50;99983.47;;;27.54;100.00
4858;BME280;58975;51.978;8.472;2022-08-04T17:05:47;99981.31;;;27.16;100.00
4858;BME280;58975;51.978;8.472;2022-08-04T17:10:44;99981.09;;;27.06;100.00
4858;BME280;58975;51.978;8.472;2022-08-04T17:15:46;99989.56;;;26.93;100.00
4858;BME280;58975;51.978;8.472;2022-08-04T17:20:43;99980.25;;;26.82;100.00
4858;BME280;58975;51.978;8.472;2022-08-04T17:26:00;99970.81;;;26.85;100.00
4858;BME280;58975;51.978;8.472;2022-08-04T17:30:58;99963.66;;;26.72;100.00
4858;BME280;58975;51.978;8.472;2022-08-04T17:36:00;99968.97;;;26.79;100.00
4858;BME280;58975;51.978;8.472;2022-08-04T17:41:00;99977.06;;;26.74;100.00
4858;BME280;58975;51.978;8.472;2022-08-04T17:46:27;99984.31;;;26.68;100.00
4858;BME280;58975;51.978;8.472;2022-08-04T17:51:31;99992.16;;;26.53;100.00
4858;BME280;58975;51.978;8.472;2022-08-04T17:56:49;99986.34;;;26.38;100.00
4858;BME280;58975;51.978;8.472;2022-08-04T18:06:55;100015.19;;;26.34;100.00
4858;BME280;58975;51.978;8.472;2022-08-04T18:12:22;100013.06;;;27.57;100.00
4858;BME280;58975;51.978;8.472;2022-08-04T18:17:39;100032.91;;;27.64;100.00
4858;BME280;58975;51.978;8.472;2022-08-04T18:22:58;100023.78;;;28.32;100.00
4858;BME280;58975;51.978;8.472;2022-08-04T18:27:55;100027.56;;;28.76;100.00
4858;BME280;58975;51.978;8.472;2022-08-04T18:32:52;100023.13;;;27.28;100.00
4858;BME280;58975;51.978;8.472;2022-08-04T18:38:12;100017.56;;;26.54;100.00
4858;BME280;58975;51.978;8.472;2022-08-04T18:43:19;100031.78;;;26.44;100.00
4858;BME280;58975;51.978;8.472;2022-08-04T18:48:35;100033.88;;;25.89;100.00
4858;BME280;58975;51.978;8.472;2022-08-04T18:53:32;100049.16;;;25.42;100.00
4858;BME280;58975;51.978;8.472;2022-08-04T18:58:31;100051.81;;;25.12;100.00
4858;BME280;58975;51.978;8.472;2022-08-04T19:03:28;100057.38;;;24.74;100.00
4858;BME280;58975;51.978;8.472;2022-08-04T19:08:29;100073.09;;;24.54;100.00
4858;BME280;58975;51.978;8.472;2022-08-04T19:13:30;100074.94;;;24.29;100.00
4858;BME280;58975;51.978;8.472;2022-08-04T19:18:30;100072.72;;;24.13;100.00
4858;BME280;58975;51.978;8.472;2022-08-04T19:23:31;100078.50;;;23.91;100.00
4858;BME280;58975;51.978;8.472;2022-08-04T19:28:50;100101.34;;;23.77;100.00
4858;BME280;58975;51.978;8.472;2022-08-04T19:33:47;100077.78;;;23.65;100.00
4858;BME280;58975;51.978;8.472;2022-08-04T19:39:04;100087.69;;;23.39;100.00
4858;BME280;58975;51.978;8.472;2022-08-04T19:44:07;100073.31;;;23.19;100.00
4858;BME280;58975;51.978;8.472;2022-08-04T19:49:04;100068.72;;;23.13;100.00
4858;BME280;58975;51.978;8.472;2022-08-04T19:54:21;100049.09;;;23.11;100.00
4858;BME280;58975;51.978;8.472;2022-08-04T19:59:22;100047.44;;;23.03;100.00
4858;BME280;58975;51.978;8.472;2022-08-04T20:04:19;100048.28;;;22.97;100.00
4858;BME280;58975;51.978;8.472;2022-08-04T20:09:16;100028.69;;;22.89;100.00
4858;BME280;58975;51.978;8.472;2022-08-04T20:14:22;100027.41;;;22.78;100.00
4858;BME280;58975;51.978;8.472;2022-08-04T20:19:28;100020.13;;;22.72;100.00
4858;BME280;58975;51.978;8.472;2022-08-04T20:24:25;100016.59;;;22.72;100.00
4858;BME280;58975;51.978;8.472;2022-08-04T20:29:43;100017.81;;;22.62;100.00
4858;BME280;58975;51.978;8.472;2022-08-04T20:34:44;100035.78;;;22.57;100.00
4858;BME280;58975;51.978;8.472;2022-08-04T20:39:41;100056.84;;;22.55;100.00
4858;BME280;58975;51.978;8.472;2022-08-04T20:44:38;100068.13;;;22.52;100.00
4858;BME280;58975;51.978;8.472;2022-08-04T20:49:41;100068.34;;;22.44;100.00
4858;BME280;58975;51.978;8.472;2022-08-04T20:54:39;100052.88;;;22.31;100.00
4858;BME280;58975;51.978;8.472;2022-08-04T20:59:35;100062.06;;;22.24;100.00
4858;BME280;58975;51.978;8.472;2022-08-04T21:04:33;100063.31;;;22.14;100.00
4858;BME280;58975;51.978;8.472;2022-08-04T21:09:31;100073.28;;;22.07;100.00
4858;BME280;58975;51.978;8.472;2022-08-04T21:14:37;100068.88;;;22.00;100.00
4858;BME280;58975;51.978;8.472;2022-08-04T21:19:34;100065.97;;;21.95;100.00
4858;BME280;58975;51.978;8.472;2022-08-04T21:24:34;100068.44;;;21.90;100.00
4858;BME280;58975;51.978;8.472;2022-08-04T21:29:32;100080.91;;;21.84;100.00
4858;BME280;58975;51.978;8.472;2022-08-04T21:34:30;100087.41;;;21.83;100.00
4858;BME280;58975;51.978;8.472;2022-08-04T21:39:36;100080.28;;;21.82;100.00
4858;BME280;58975;51.978;8.472;2022-08-04T21:44:53;100079.88;;;21.79;100.00
4858;BME280;58975;51.978;8.472;2022-08-04T21:49:49;100072.75;;;21.71;100.00
4858;BME280;58975;51.978;8.472;2022-08-04T21:54:52;100063.56;;;21.65;100.00
4858;BME280;58975;51.978;8.472;2022-08-04T21:59:50;100061.44;;;21.61;100.00
4858;BME280;58975;51.978;8.472;2022-08-04T22:04:46;100058.13;;;21.59;100.00
4858;BME280;58975;51.978;8.472;2022-08-04T22:09:44;100055.66;;;21.64;100.00
4858;BME280;58975;51.978;8.472;2022-08-04T22:14:59;100065.22;;;21.60;100.00
4858;BME280;58975;51.978;8.472;2022-08-04T22:19:55;100070.59;;;21.53;100.00
4858;BME280;58975;51.978;8.472;2022-08-04T22:25:03;100086.00;;;21.53;100.00
4858;BME280;58975;51.978;8.472;2022-08-04T22:30:09;100079.75;;;21.52;100.00
4858;BME280;58975;51.978;8.472;2022-08-04T22:35:14;100100.63;;;21.52;100.00
4858;BME280;58975;51.978;8.472;2022-08-04T22:40:31;100100.13;;;21.42;100.00
4858;BME280;58975;51.978;8.472;2022-08-04T22:45:28;100112.97;;;21.27;100.00
4858;BME280;58975;51.978;8.472;2022-08-04T22:50:40;100125.38;;;21.14;100.00
4858;BME280;58975;51.978;8.472;2022-08-04T22:55:38;100130.69;;;21.01;100.00
4858;BME280;58975;51.978;8.472;2022-08-04T23:00:54;100145.25;;;21.00;100.00
4858;BME280;58975;51.978;8.472;2022-08-04T23:05:53;100161.66;;;20.92;100.00
4858;BME280;58975;51.978;8.472;2022-08-04T23:10:50;100192.84;;;20.88;100.00
4858;BME280;58975;51.978;8.472;2022-08-04T23:15:46;100178.03;;;20.84;100.00
4858;BME280;58975;51.978;8.472;2022-08-04T23:20:43;100170.88;;;20.76;100.00
4858;BME280;58975;51.978;8.472;2022-08-04T23:25:42;100177.66;;;20.66;100.00
4858;BME280;58975;51.978;8.472;2022-08-04T23:30:59;100166.56;;;20.61;100.00
4858;BME280;58975;51.978;8.472;2022-08-04T23:35:58;100167.97;;;20.57;100.00
4858;BME280;58975;51.978;8.472;2022-08-04T23:40:55;100169.34;;;20.46;100.00
4858;BME280;58975;51.978;8.472;2022-08-04T23:45:51;100177.81;;;20.43;100.00
4858;BME280;58975;51.978;8.472;2022-08-04T23:51:05;100171.56;;;20.43;100.00
4858;BME280;58975;51.978;8.472;2022-08-04T23:56:11;100143.09;;;20.47;100.00
